sensor_id;sensor_type;location;lat;lon;timestamp;P1;durP1;ratioP1;P2;durP2;ratioP2
19879;SDS011;10102;50.828;4.416;2022-07-21T00:01:47;17.73;;;13.73;;
19879;SDS011;10102;50.828;4.416;2022-07-21T00:04:14;17.63;;;13.32;;
19879;SDS011;10102;50.828;4.416;2022-07-21T00:06:41;16.60;;;12.93;;
19879;SDS011;10102;50.828;4.416;2022-07-21T00:09:07;16.67;;;12.55;;
19879;SDS011;10102;50.828;4.416;2022-07-21T00:11:33;16.52;;;13.18;;
19879;SDS011;10102;50.828;4.416;2022-07-21T00:13:58;17.05;;;13.02;;
19879;SDS011;10102;50.828;4.416;2022-07-21T00:16:24;15.50;;;12.30;;
19879;SDS011;10102;50.828;4.416;2022-07-21T00:18:50;20.40;;;13.07;;
19879;SDS011;10102;50.828;4.416;2022-07-21T00:21:15;16.10;;;12.45;;
19879;SDS011;10102;50.828;4.416;2022-07-21T00:23:41;18.38;;;12.50;;
19879;SDS011;10102;50.828;4.416;2022-07-21T00:26:07;17.70;;;13.02;;
19879;SDS011;10102;50.828;4.416;2022-07-21T00:28:33;18.42;;;12.95;;
19879;SDS011;10102;50.828;4.416;2022-07-21T00:30:58;15.98;;;12.77;;
19879;SDS011;10102;50.828;4.416;2022-07-21T00:33:24;18.88;;;13.15;;
19879;SDS011;10102;50.828;4.416;2022-07-21T00:35:49;15.60;;;12.07;;
19879;SDS011;10102;50.828;4.416;2022-07-21T00:38:15;16.27;;;12.30;;
19879;SDS011;10102;50.828;4.416;2022-07-21T00:40:41;20.13;;;13.05;;
19879;SDS011;10102;50.828;4.416;2022-07-21T00:43:06;17.83;;;12.77;;
19879;SDS011;10102;50.828;4.416;2022-07-21T00:45:32;16.05;;;12.98;;
19879;SDS011;10102;50.828;4.416;2022-07-21T00:47:58;13.80;;;12.32;;
19879;SDS011;10102;50.828;4.416;2022-07-21T00:50:24;17.80;;;12.15;;
19879;SDS011;10102;50.828;4.416;2022-07-21T00:52:50;16.92;;;12.55;;
19879;SDS011;10102;50.828;4.416;2022-07-21T00:55:17;16.17;;;12.25;;
19879;SDS011;10102;50.828;4.416;2022-07-21T00:57:44;16.08;;;12.23;;
19879;SDS011;10102;50.828;4.416;2022-07-21T01:00:15;16.42;;;12.23;;
19879;SDS011;10102;50.828;4.416;2022-07-21T01:02:43;20.00;;;12.45;;
19879;SDS011;10102;50.828;4.416;2022-07-21T01:05:09;16.48;;;12.38;;
19879;SDS011;10102;50.828;4.416;2022-07-21T01:07:45;22.25;;;12.38;;
19879;SDS011;10102;50.828;4.416;2022-07-21T01:10:13;17.52;;;11.50;;
19879;SDS011;10102;50.828;4.416;2022-07-21T01:12:41;14.98;;;12.15;;
19879;SDS011;10102;50.828;4.416;2022-07-21T01:15:08;20.60;;;12.35;;
19879;SDS011;10102;50.828;4.416;2022-07-21T01:17:35;14.82;;;11.15;;
19879;SDS011;10102;50.828;4.416;2022-07-21T01:20:03;18.50;;;11.77;;
19879;SDS011;10102;50.828;4.416;2022-07-21T01:22:31;17.20;;;11.68;;
19879;SDS011;10102;50.828;4.416;2022-07-21T01:24:58;15.45;;;10.75;;
19879;SDS011;10102;50.828;4.416;2022-07-21T01:27:26;20.13;;;12.13;;
19879;SDS011;10102;50.828;4.416;2022-07-21T01:29:54;16.63;;;11.73;;
19879;SDS011;10102;50.828;4.416;2022-07-21T01:32:21;20.23;;;12.18;;
19879;SDS011;10102;50.828;4.416;2022-07-21T01:34:47;17.58;;;11.35;;
19879;SDS011;10102;50.828;4.416;2022-07-21T01:37:13;15.27;;;10.70;;
19879;SDS011;10102;50.828;4.416;2022-07-21T01:39:39;16.08;;;11.93;;
19879;SDS011;10102;50.828;4.416;2022-07-21T01:42:23;14.27;;;10.65;;
19879;SDS011;10102;50.828;4.416;2022-07-21T01:44:50;15.52;;;10.55;;
19879;SDS011;10102;50.828;4.416;2022-07-21T01:47:16;17.98;;;10.70;;
19879;SDS011;10102;50.828;4.416;2022-07-21T01:49:43;20.10;;;11.52;;
19879;SDS011;10102;50.828;4.416;2022-07-21T01:52:09;16.67;;;11.20;;
19879;SDS011;10102;50.828;4.416;2022-07-21T01:54:35;21.75;;;11.23;;
19879;SDS011;10102;50.828;4.416;2022-07-21T01:57:01;17.35;;;11.30;;
19879;SDS011;10102;50.828;4.416;2022-07-21T01:59:27;16.33;;;10.70;;
19879;SDS011;10102;50.828;4.416;2022-07-21T02:01:52;14.88;;;11.27;;
19879;SDS011;10102;50.828;4.416;2022-07-21T02:04:18;16.42;;;11.45;;
19879;SDS011;10102;50.828;4.416;2022-07-21T02:06:44;14.35;;;10.70;;
19879;SDS011;10102;50.828;4.416;2022-07-21T02:09:10;15.73;;;10.70;;
19879;SDS011;10102;50.828;4.416;2022-07-21T02:11:36;15.68;;;10.98;;
19879;SDS011;10102;50.828;4.416;2022-07-21T02:14:02;14.15;;;10.45;;
19879;SDS011;10102;50.828;4.416;2022-07-21T02:16:28;12.43;;;10.57;;
19879;SDS011;10102;50.828;4.416;2022-07-21T02:18:54;15.75;;;10.10;;
19879;SDS011;10102;50.828;4.416;2022-07-21T02:21:21;16.63;;;10.30;;
19879;SDS011;10102;50.828;4.416;2022-07-21T02:23:46;16.98;;;11.43;;
19879;SDS011;10102;50.828;4.416;2022-07-21T02:26:12;18.63;;;10.55;;
19879;SDS011;10102;50.828;4.416;2022-07-21T02:28:38;17.42;;;10.25;;
19879;SDS011;10102;50.828;4.416;2022-07-21T02:31:03;17.77;;;9.93;;
19879;SDS011;10102;50.828;4.416;2022-07-21T02:33:30;16.73;;;10.30;;
19879;SDS011;10102;50.828;4.416;2022-07-21T02:35:56;18.85;;;10.60;;
19879;SDS011;10102;50.828;4.416;2022-07-21T02:38:21;13.68;;;10.77;;
19879;SDS011;10102;50.828;4.416;2022-07-21T02:40:47;15.20;;;9.95;;
19879;SDS011;10102;50.828;4.416;2022-07-21T02:43:13;19.27;;;10.23;;
19879;SDS011;10102;50.828;4.416;2022-07-21T02:45:39;17.88;;;8.88;;
19879;SDS011;10102;50.828;4.416;2022-07-21T02:48:08;14.02;;;9.27;;
19879;SDS011;10102;50.828;4.416;2022-07-21T02:50:37;14.63;;;9.32;;
19879;SDS011;10102;50.828;4.416;2022-07-21T02:53:06;14.15;;;9.43;;
19879;SDS011;10102;50.828;4.416;2022-07-21T02:55:34;14.77;;;8.68;;
19879;SDS011;10102;50.828;4.416;2022-07-21T03:00:44;18.35;;;8.50;;
19879;SDS011;10102;50.828;4.416;2022-07-21T03:03:15;13.10;;;8.93;;
19879;SDS011;10102;50.828;4.416;2022-07-21T03:05:42;20.17;;;9.20;;
19879;SDS011;10102;50.828;4.416;2022-07-21T03:08:08;12.30;;;8.95;;
19879;SDS011;10102;50.828;4.416;2022-07-21T03:10:35;17.73;;;8.30;;
19879;SDS011;10102;50.828;4.416;2022-07-21T03:13:01;14.82;;;9.05;;
19879;SDS011;10102;50.828;4.416;2022-07-21T03:15:28;14.45;;;8.43;;
19879;SDS011;10102;50.828;4.416;2022-07-21T03:17:54;14.95;;;8.30;;
19879;SDS011;10102;50.828;4.416;2022-07-21T03:20:21;13.90;;;8.20;;
19879;SDS011;10102;50.828;4.416;2022-07-21T03:22:48;17.60;;;9.20;;
19879;SDS011;10102;50.828;4.416;2022-07-21T03:25:14;12.80;;;8.70;;
19879;SDS011;10102;50.828;4.416;2022-07-21T03:27:40;14.35;;;8.88;;
19879;SDS011;10102;50.828;4.416;2022-07-21T03:30:06;14.35;;;7.93;;
19879;SDS011;10102;50.828;4.416;2022-07-21T03:32:33;20.35;;;8.40;;
19879;SDS011;10102;50.828;4.416;2022-07-21T03:35:00;12.68;;;8.02;;
19879;SDS011;10102;50.828;4.416;2022-07-21T03:37:26;16.63;;;7.68;;
19879;SDS011;10102;50.828;4.416;2022-07-21T03:39:52;13.02;;;7.97;;
19879;SDS011;10102;50.828;4.416;2022-07-21T03:42:18;14.05;;;7.70;;
19879;SDS011;10102;50.828;4.416;2022-07-21T03:44:44;13.48;;;8.23;;
19879;SDS011;10102;50.828;4.416;2022-07-21T03:47:09;17.35;;;8.55;;
19879;SDS011;10102;50.828;4.416;2022-07-21T03:49:35;18.08;;;9.05;;
19879;SDS011;10102;50.828;4.416;2022-07-21T03:52:01;15.80;;;8.30;;
19879;SDS011;10102;50.828;4.416;2022-07-21T03:54:27;16.85;;;8.32;;
19879;SDS011;10102;50.828;4.416;2022-07-21T03:56:53;13.48;;;8.35;;
19879;SDS011;10102;50.828;4.416;2022-07-21T03:59:19;18.25;;;8.85;;
19879;SDS011;10102;50.828;4.416;2022-07-21T04:01:44;17.05;;;9.02;;
19879;SDS011;10102;50.828;4.416;2022-07-21T04:04:10;13.27;;;9.50;;
19879;SDS011;10102;50.828;4.416;2022-07-21T04:06:36;16.17;;;8.57;;
19879;SDS011;10102;50.828;4.416;2022-07-21T04:09:02;13.27;;;8.68;;
19879;SDS011;10102;50.828;4.416;2022-07-21T04:11:28;21.60;;;9.98;;
19879;SDS011;10102;50.828;4.416;2022-07-21T04:13:55;45.92;;;11.00;;
19879;SDS011;10102;50.828;4.416;2022-07-21T04:16:21;17.80;;;9.75;;
19879;SDS011;10102;50.828;4.416;2022-07-21T04:18:47;14.10;;;9.70;;
19879;SDS011;10102;50.828;4.416;2022-07-21T04:21:13;26.63;;;11.48;;
19879;SDS011;10102;50.828;4.416;2022-07-21T04:23:38;16.85;;;11.00;;
19879;SDS011;10102;50.828;4.416;2022-07-21T04:26:04;20.33;;;11.27;;
19879;SDS011;10102;50.828;4.416;2022-07-21T04:28:30;20.52;;;9.93;;
19879;SDS011;10102;50.828;4.416;2022-07-21T04:30:56;20.23;;;11.15;;
19879;SDS011;10102;50.828;4.416;2022-07-21T04:33:22;23.65;;;11.38;;
19879;SDS011;10102;50.828;4.416;2022-07-21T04:35:47;17.52;;;10.77;;
19879;SDS011;10102;50.828;4.416;2022-07-21T04:38:13;25.90;;;12.65;;
19879;SDS011;10102;50.828;4.416;2022-07-21T04:40:39;21.23;;;11.93;;
19879;SDS011;10102;50.828;4.416;2022-07-21T04:43:05;22.90;;;11.38;;
19879;SDS011;10102;50.828;4.416;2022-07-21T04:45:31;23.65;;;12.27;;
19879;SDS011;10102;50.828;4.416;2022-07-21T04:47:57;18.52;;;13.23;;
19879;SDS011;10102;50.828;4.416;2022-07-21T04:50:24;22.40;;;11.90;;
19879;SDS011;10102;50.828;4.416;2022-07-21T04:52:51;16.80;;;12.15;;
19879;SDS011;10102;50.828;4.416;2022-07-21T04:55:17;26.73;;;12.85;;
19879;SDS011;10102;50.828;4.416;2022-07-21T04:57:48;20.52;;;12.95;;
19879;SDS011;10102;50.828;4.416;2022-07-21T05:00:16;22.48;;;13.52;;
19879;SDS011;10102;50.828;4.416;2022-07-21T05:02:44;20.70;;;12.77;;
19879;SDS011;10102;50.828;4.416;2022-07-21T05:05:11;22.27;;;12.52;;
19879;SDS011;10102;50.828;4.416;2022-07-21T05:07:37;26.00;;;12.63;;
19879;SDS011;10102;50.828;4.416;2022-07-21T05:10:07;26.33;;;12.65;;
19879;SDS011;10102;50.828;4.416;2022-07-21T05:12:34;23.45;;;12.48;;
19879;SDS011;10102;50.828;4.416;2022-07-21T05:15:00;29.83;;;13.90;;
19879;SDS011;10102;50.828;4.416;2022-07-21T05:17:26;24.30;;;14.27;;
19879;SDS011;10102;50.828;4.416;2022-07-21T05:19:52;24.60;;;14.60;;
19879;SDS011;10102;50.828;4.416;2022-07-21T05:22:18;25.73;;;15.35;;
19879;SDS011;10102;50.828;4.416;2022-07-21T05:27:34;23.60;;;15.20;;
19879;SDS011;10102;50.828;4.416;2022-07-21T05:30:00;24.55;;;14.93;;
19879;SDS011;10102;50.828;4.416;2022-07-21T05:32:26;23.95;;;16.23;;
19879;SDS011;10102;50.828;4.416;2022-07-21T05:34:52;26.98;;;15.70;;
19879;SDS011;10102;50.828;4.416;2022-07-21T05:37:18;20.35;;;13.88;;
19879;SDS011;10102;50.828;4.416;2022-07-21T05:39:43;28.90;;;15.10;;
19879;SDS011;10102;50.828;4.416;2022-07-21T05:42:09;22.80;;;15.18;;
19879;SDS011;10102;50.828;4.416;2022-07-21T05:44:35;26.48;;;15.35;;
19879;SDS011;10102;50.828;4.416;2022-07-21T05:47:01;24.30;;;14.80;;
19879;SDS011;10102;50.828;4.416;2022-07-21T05:49:27;29.45;;;15.93;;
19879;SDS011;10102;50.828;4.416;2022-07-21T05:51:53;25.13;;;16.25;;
19879;SDS011;10102;50.828;4.416;2022-07-21T05:54:18;31.40;;;15.77;;
19879;SDS011;10102;50.828;4.416;2022-07-21T05:56:44;23.65;;;14.90;;
19879;SDS011;10102;50.828;4.416;2022-07-21T05:59:10;25.58;;;15.85;;
19879;SDS011;10102;50.828;4.416;2022-07-21T06:01:36;22.27;;;14.82;;
19879;SDS011;10102;50.828;4.416;2022-07-21T06:04:02;24.58;;;14.73;;
19879;SDS011;10102;50.828;4.416;2022-07-21T06:06:28;24.55;;;14.95;;
19879;SDS011;10102;50.828;4.416;2022-07-21T06:08:54;26.38;;;15.25;;
19879;SDS011;10102;50.828;4.416;2022-07-21T06:11:21;25.60;;;16.02;;
19879;SDS011;10102;50.828;4.416;2022-07-21T06:13:46;27.13;;;15.18;;
19879;SDS011;10102;50.828;4.416;2022-07-21T06:16:14;23.17;;;15.30;;
19879;SDS011;10102;50.828;4.416;2022-07-21T06:18:39;23.08;;;16.08;;
19879;SDS011;10102;50.828;4.416;2022-07-21T06:21:05;27.73;;;16.88;;
19879;SDS011;10102;50.828;4.416;2022-07-21T06:23:31;29.20;;;17.98;;
19879;SDS011;10102;50.828;4.416;2022-07-21T06:25:57;34.92;;;18.00;;
19879;SDS011;10102;50.828;4.416;2022-07-21T06:28:23;35.65;;;18.60;;
19879;SDS011;10102;50.828;4.416;2022-07-21T06:30:49;29.50;;;18.38;;
19879;SDS011;10102;50.828;4.416;2022-07-21T06:33:15;48.42;;;18.48;;
19879;SDS011;10102;50.828;4.416;2022-07-21T06:35:41;35.72;;;19.38;;
19879;SDS011;10102;50.828;4.416;2022-07-21T06:38:08;31.40;;;20.02;;
19879;SDS011;10102;50.828;4.416;2022-07-21T06:40:33;37.22;;;19.95;;
19879;SDS011;10102;50.828;4.416;2022-07-21T06:43:00;39.38;;;20.45;;
19879;SDS011;10102;50.828;4.416;2022-07-21T06:45:26;41.25;;;19.95;;
19879;SDS011;10102;50.828;4.416;2022-07-21T06:48:04;46.92;;;21.83;;
19879;SDS011;10102;50.828;4.416;2022-07-21T06:50:33;43.22;;;22.58;;
19879;SDS011;10102;50.828;4.416;2022-07-21T06:53:01;49.55;;;24.33;;
19879;SDS011;10102;50.828;4.416;2022-07-21T06:55:26;44.20;;;24.55;;
19879;SDS011;10102;50.828;4.416;2022-07-21T06:57:52;57.20;;;25.35;;
19879;SDS011;10102;50.828;4.416;2022-07-21T07:00:18;55.25;;;26.85;;
19879;SDS011;10102;50.828;4.416;2022-07-21T07:02:44;64.65;;;28.13;;
19879;SDS011;10102;50.828;4.416;2022-07-21T07:05:10;67.47;;;29.60;;
19879;SDS011;10102;50.828;4.416;2022-07-21T07:07:36;66.50;;;29.00;;
19879;SDS011;10102;50.828;4.416;2022-07-21T07:10:02;73.00;;;30.35;;
19879;SDS011;10102;50.828;4.416;2022-07-21T07:12:28;75.07;;;31.48;;
19879;SDS011;10102;50.828;4.416;2022-07-21T07:14:54;66.30;;;31.08;;
19879;SDS011;10102;50.828;4.416;2022-07-21T07:17:20;86.63;;;32.78;;
19879;SDS011;10102;50.828;4.416;2022-07-21T07:19:48;80.55;;;33.65;;
19879;SDS011;10102;50.828;4.416;2022-07-21T07:22:14;93.57;;;34.42;;
19879;SDS011;10102;50.828;4.416;2022-07-21T07:24:40;91.82;;;34.90;;
19879;SDS011;10102;50.828;4.416;2022-07-21T07:27:06;97.15;;;34.67;;
19879;SDS011;10102;50.828;4.416;2022-07-21T07:29:32;83.88;;;35.60;;
19879;SDS011;10102;50.828;4.416;2022-07-21T07:31:59;77.40;;;33.78;;
19879;SDS011;10102;50.828;4.416;2022-07-21T07:34:25;88.45;;;37.47;;
19879;SDS011;10102;50.828;4.416;2022-07-21T07:36:50;98.18;;;38.53;;
19879;SDS011;10102;50.828;4.416;2022-07-21T07:39:16;111.53;;;38.45;;
19879;SDS011;10102;50.828;4.416;2022-07-21T07:41:42;96.72;;;37.13;;
19879;SDS011;10102;50.828;4.416;2022-07-21T07:44:08;81.00;;;36.30;;
19879;SDS011;10102;50.828;4.416;2022-07-21T07:46:35;89.32;;;37.30;;
19879;SDS011;10102;50.828;4.416;2022-07-21T07:49:01;90.95;;;37.03;;
19879;SDS011;10102;50.828;4.416;2022-07-21T07:51:26;89.63;;;35.88;;
19879;SDS011;10102;50.828;4.416;2022-07-21T07:53:52;84.00;;;35.90;;
19879;SDS011;10102;50.828;4.416;2022-07-21T07:56:18;77.28;;;35.30;;
19879;SDS011;10102;50.828;4.416;2022-07-21T07:58:44;81.43;;;33.20;;
19879;SDS011;10102;50.828;4.416;2022-07-21T08:01:10;75.00;;;34.28;;
19879;SDS011;10102;50.828;4.416;2022-07-21T08:03:36;71.88;;;33.45;;
19879;SDS011;10102;50.828;4.416;2022-07-21T08:06:02;75.72;;;35.03;;
19879;SDS011;10102;50.828;4.416;2022-07-21T08:08:31;66.15;;;31.77;;
19879;SDS011;10102;50.828;4.416;2022-07-21T08:10:58;72.90;;;32.17;;
19879;SDS011;10102;50.828;4.416;2022-07-21T08:13:24;58.40;;;29.98;;
19879;SDS011;10102;50.828;4.416;2022-07-21T08:15:50;58.60;;;28.95;;
19879;SDS011;10102;50.828;4.416;2022-07-21T08:18:17;57.97;;;29.75;;
19879;SDS011;10102;50.828;4.416;2022-07-21T08:20:44;54.50;;;29.63;;
19879;SDS011;10102;50.828;4.416;2022-07-21T08:23:11;57.72;;;29.75;;
19879;SDS011;10102;50.828;4.416;2022-07-21T08:25:38;53.35;;;29.17;;
19879;SDS011;10102;50.828;4.416;2022-07-21T08:28:04;53.60;;;28.48;;
19879;SDS011;10102;50.828;4.416;2022-07-21T08:30:30;53.92;;;28.73;;
19879;SDS011;10102;50.828;4.416;2022-07-21T08:32:57;49.65;;;29.58;;
19879;SDS011;10102;50.828;4.416;2022-07-21T08:35:24;56.72;;;29.58;;
19879;SDS011;10102;50.828;4.416;2022-07-21T08:37:54;49.80;;;28.10;;
19879;SDS011;10102;50.828;4.416;2022-07-21T08:40:25;47.53;;;27.52;;
19879;SDS011;10102;50.828;4.416;2022-07-21T08:42:52;48.47;;;25.88;;
19879;SDS011;10102;50.828;4.416;2022-07-21T08:45:19;46.58;;;25.85;;
19879;SDS011;10102;50.828;4.416;2022-07-21T08:47:47;39.47;;;24.15;;
19879;SDS011;10102;50.828;4.416;2022-07-21T08:50:19;43.45;;;24.80;;
19879;SDS011;10102;50.828;4.416;2022-07-21T08:52:47;50.58;;;26.17;;
19879;SDS011;10102;50.828;4.416;2022-07-21T08:55:13;42.67;;;25.02;;
19879;SDS011;10102;50.828;4.416;2022-07-21T08:57:39;38.38;;;23.75;;
19879;SDS011;10102;50.828;4.416;2022-07-21T09:00:06;41.42;;;24.13;;
19879;SDS011;10102;50.828;4.416;2022-07-21T09:02:34;45.67;;;25.00;;
19879;SDS011;10102;50.828;4.416;2022-07-21T09:05:01;41.97;;;23.10;;
19879;SDS011;10102;50.828;4.416;2022-07-21T09:07:27;47.75;;;23.52;;
19879;SDS011;10102;50.828;4.416;2022-07-21T09:09:54;33.65;;;19.35;;
19879;SDS011;10102;50.828;4.416;2022-07-21T09:12:24;19.70;;;12.70;;
19879;SDS011;10102;50.828;4.416;2022-07-21T09:14:51;18.50;;;11.70;;
19879;SDS011;10102;50.828;4.416;2022-07-21T09:17:17;16.90;;;11.10;;
19879;SDS011;10102;50.828;4.416;2022-07-21T09:19:44;18.23;;;10.15;;
19879;SDS011;10102;50.828;4.416;2022-07-21T09:22:13;13.23;;;8.75;;
19879;SDS011;10102;50.828;4.416;2022-07-21T09:24:47;11.00;;;8.48;;
19879;SDS011;10102;50.828;4.416;2022-07-21T09:27:16;12.23;;;8.65;;
19879;SDS011;10102;50.828;4.416;2022-07-21T09:29:44;11.52;;;8.27;;
19879;SDS011;10102;50.828;4.416;2022-07-21T09:35:01;11.07;;;8.50;;
19879;SDS011;10102;50.828;4.416;2022-07-21T09:37:27;10.75;;;8.55;;
19879;SDS011;10102;50.828;4.416;2022-07-21T09:39:54;12.65;;;8.23;;
19879;SDS011;10102;50.828;4.416;2022-07-21T09:44:52;10.13;;;8.07;;
19879;SDS011;10102;50.828;4.416;2022-07-21T09:47:23;9.85;;;7.07;;
19879;SDS011;10102;50.828;4.416;2022-07-21T09:49:50;9.80;;;6.30;;
19879;SDS011;10102;50.828;4.416;2022-07-21T09:54:54;12.35;;;6.80;;
19879;SDS011;10102;50.828;4.416;2022-07-21T09:57:21;9.30;;;6.80;;
19879;SDS011;10102;50.828;4.416;2022-07-21T09:59:47;10.57;;;6.43;;
19879;SDS011;10102;50.828;4.416;2022-07-21T10:02:16;9.73;;;6.38;;
19879;SDS011;10102;50.828;4.416;2022-07-21T10:04:54;10.52;;;6.40;;
19879;SDS011;10102;50.828;4.416;2022-07-21T10:07:20;8.23;;;5.75;;
19879;SDS011;10102;50.828;4.416;2022-07-21T10:09:47;7.88;;;5.22;;
19879;SDS011;10102;50.828;4.416;2022-07-21T10:12:14;8.20;;;5.20;;
19879;SDS011;10102;50.828;4.416;2022-07-21T10:14:41;10.73;;;5.85;;
19879;SDS011;10102;50.828;4.416;2022-07-21T10:17:07;7.40;;;5.53;;
19879;SDS011;10102;50.828;4.416;2022-07-21T10:20:16;8.88;;;5.60;;
19879;SDS011;10102;50.828;4.416;2022-07-21T10:25:24;8.82;;;5.88;;
19879;SDS011;10102;50.828;4.416;2022-07-21T10:30:42;9.75;;;5.97;;
19879;SDS011;10102;50.828;4.416;2022-07-21T10:33:13;8.85;;;6.28;;
19879;SDS011;10102;50.828;4.416;2022-07-21T10:35:41;10.02;;;6.60;;
19879;SDS011;10102;50.828;4.416;2022-07-21T10:38:24;11.05;;;6.78;;
19879;SDS011;10102;50.828;4.416;2022-07-21T10:40:50;12.25;;;7.10;;
19879;SDS011;10102;50.828;4.416;2022-07-21T10:45:48;11.13;;;6.93;;
19879;SDS011;10102;50.828;4.416;2022-07-21T10:48:47;16.27;;;7.80;;
19879;SDS011;10102;50.828;4.416;2022-07-21T10:51:09;16.67;;;8.68;;
19879;SDS011;10102;50.828;4.416;2022-07-21T10:53:36;20.83;;;9.00;;
19879;SDS011;10102;50.828;4.416;2022-07-21T10:56:02;18.63;;;8.70;;
19879;SDS011;10102;50.828;4.416;2022-07-21T10:58:29;16.23;;;7.80;;
19879;SDS011;10102;50.828;4.416;2022-07-21T11:01:03;10.93;;;7.85;;
19879;SDS011;10102;50.828;4.416;2022-07-21T11:03:37;11.63;;;7.82;;
19879;SDS011;10102;50.828;4.416;2022-07-21T11:13:59;14.77;;;7.35;;
19879;SDS011;10102;50.828;4.416;2022-07-21T11:22:02;15.13;;;7.10;;
19879;SDS011;10102;50.828;4.416;2022-07-21T11:24:31;13.30;;;6.82;;
19879;SDS011;10102;50.828;4.416;2022-07-21T11:26:59;15.15;;;6.68;;
19879;SDS011;10102;50.828;4.416;2022-07-21T11:29:33;13.05;;;6.72;;
19879;SDS011;10102;50.828;4.416;2022-07-21T11:32:00;10.13;;;6.57;;
19879;SDS011;10102;50.828;4.416;2022-07-21T11:37:09;13.68;;;7.18;;
19879;SDS011;10102;50.828;4.416;2022-07-21T11:39:37;16.77;;;7.22;;
19879;SDS011;10102;50.828;4.416;2022-07-21T11:42:04;15.05;;;6.53;;
19879;SDS011;10102;50.828;4.416;2022-07-21T11:44:32;13.52;;;7.03;;
19879;SDS011;10102;50.828;4.416;2022-07-21T11:46:59;10.73;;;6.53;;
19879;SDS011;10102;50.828;4.416;2022-07-21T11:49:26;13.10;;;7.18;;
19879;SDS011;10102;50.828;4.416;2022-07-21T11:51:56;14.32;;;7.85;;
19879;SDS011;10102;50.828;4.416;2022-07-21T11:54:25;17.70;;;7.57;;
19879;SDS011;10102;50.828;4.416;2022-07-21T11:56:59;13.32;;;6.50;;
19879;SDS011;10102;50.828;4.416;2022-07-21T11:59:27;9.88;;;6.78;;
19879;SDS011;10102;50.828;4.416;2022-07-21T12:07:00;17.63;;;7.28;;
19879;SDS011;10102;50.828;4.416;2022-07-21T12:09:27;16.40;;;6.68;;
19879;SDS011;10102;50.828;4.416;2022-07-21T12:11:53;11.18;;;6.38;;
19879;SDS011;10102;50.828;4.416;2022-07-21T12:14:19;11.52;;;6.07;;
19879;SDS011;10102;50.828;4.416;2022-07-21T12:16:51;18.05;;;5.78;;
19879;SDS011;10102;50.828;4.416;2022-07-21T12:19:19;11.88;;;5.45;;
19879;SDS011;10102;50.828;4.416;2022-07-21T12:21:49;13.15;;;4.97;;
19879;SDS011;10102;50.828;4.416;2022-07-21T12:24:17;9.10;;;4.93;;
19879;SDS011;10102;50.828;4.416;2022-07-21T12:26:44;12.27;;;4.80;;
19879;SDS011;10102;50.828;4.416;2022-07-21T12:29:23;10.32;;;5.30;;
19879;SDS011;10102;50.828;4.416;2022-07-21T12:31:53;9.88;;;5.53;;
19879;SDS011;10102;50.828;4.416;2022-07-21T12:34:19;10.00;;;5.38;;
19879;SDS011;10102;50.828;4.416;2022-07-21T12:36:46;17.55;;;5.70;;
19879;SDS011;10102;50.828;4.416;2022-07-21T12:39:20;12.05;;;6.40;;
19879;SDS011;10102;50.828;4.416;2022-07-21T12:42:07;16.98;;;6.53;;
19879;SDS011;10102;50.828;4.416;2022-07-21T12:44:35;13.27;;;6.35;;
19879;SDS011;10102;50.828;4.416;2022-07-21T12:47:18;16.67;;;6.18;;
19879;SDS011;10102;50.828;4.416;2022-07-21T12:52:28;19.55;;;5.75;;
19879;SDS011;10102;50.828;4.416;2022-07-21T12:54:55;14.65;;;6.13;;
19879;SDS011;10102;50.828;4.416;2022-07-21T12:57:25;17.10;;;6.13;;
19879;SDS011;10102;50.828;4.416;2022-07-21T12:59:56;11.02;;;5.20;;
19879;SDS011;10102;50.828;4.416;2022-07-21T13:02:23;14.82;;;6.10;;
19879;SDS011;10102;50.828;4.416;2022-07-21T13:04:50;14.65;;;5.18;;
19879;SDS011;10102;50.828;4.416;2022-07-21T13:07:16;10.10;;;5.28;;
19879;SDS011;10102;50.828;4.416;2022-07-21T13:09:41;13.77;;;5.50;;
19879;SDS011;10102;50.828;4.416;2022-07-21T13:12:07;13.70;;;5.07;;
19879;SDS011;10102;50.828;4.416;2022-07-21T13:14:33;11.48;;;4.93;;
19879;SDS011;10102;50.828;4.416;2022-07-21T13:16:59;14.30;;;5.60;;
19879;SDS011;10102;50.828;4.416;2022-07-21T13:19:25;12.52;;;5.57;;
19879;SDS011;10102;50.828;4.416;2022-07-21T13:21:51;15.43;;;5.30;;
19879;SDS011;10102;50.828;4.416;2022-07-21T13:24:17;14.20;;;5.72;;
19879;SDS011;10102;50.828;4.416;2022-07-21T13:26:43;17.45;;;5.60;;
19879;SDS011;10102;50.828;4.416;2022-07-21T13:29:09;21.17;;;5.45;;
19879;SDS011;10102;50.828;4.416;2022-07-21T13:31:35;11.68;;;5.20;;
19879;SDS011;10102;50.828;4.416;2022-07-21T13:34:02;15.07;;;5.07;;
19879;SDS011;10102;50.828;4.416;2022-07-21T13:36:28;13.15;;;5.25;;
19879;SDS011;10102;50.828;4.416;2022-07-21T13:38:54;14.95;;;5.85;;
19879;SDS011;10102;50.828;4.416;2022-07-21T13:41:21;15.95;;;5.43;;
19879;SDS011;10102;50.828;4.416;2022-07-21T13:43:46;12.82;;;5.35;;
19879;SDS011;10102;50.828;4.416;2022-07-21T13:46:12;15.82;;;5.82;;
19879;SDS011;10102;50.828;4.416;2022-07-21T13:48:39;12.30;;;5.80;;
19879;SDS011;10102;50.828;4.416;2022-07-21T13:51:04;15.68;;;5.45;;
19879;SDS011;10102;50.828;4.416;2022-07-21T13:53:30;15.95;;;5.35;;
19879;SDS011;10102;50.828;4.416;2022-07-21T13:55:56;13.57;;;5.90;;
19879;SDS011;10102;50.828;4.416;2022-07-21T13:58:22;15.98;;;6.35;;
19879;SDS011;10102;50.828;4.416;2022-07-21T14:00:47;18.42;;;5.50;;
19879;SDS011;10102;50.828;4.416;2022-07-21T14:03:13;14.82;;;5.68;;
19879;SDS011;10102;50.828;4.416;2022-07-21T14:05:39;13.23;;;5.68;;
19879;SDS011;10102;50.828;4.416;2022-07-21T14:08:04;17.10;;;6.25;;
19879;SDS011;10102;50.828;4.416;2022-07-21T14:10:30;18.77;;;6.00;;
19879;SDS011;10102;50.828;4.416;2022-07-21T14:12:58;15.60;;;5.65;;
19879;SDS011;10102;50.828;4.416;2022-07-21T14:15:24;15.93;;;5.32;;
19879;SDS011;10102;50.828;4.416;2022-07-21T14:17:49;16.95;;;5.60;;
19879;SDS011;10102;50.828;4.416;2022-07-21T14:20:15;19.23;;;5.72;;
19879;SDS011;10102;50.828;4.416;2022-07-21T14:22:41;15.27;;;6.03;;
19879;SDS011;10102;50.828;4.416;2022-07-21T14:25:07;15.02;;;5.88;;
19879;SDS011;10102;50.828;4.416;2022-07-21T14:27:46;17.60;;;5.68;;
19879;SDS011;10102;50.828;4.416;2022-07-21T14:30:12;14.43;;;4.90;;
19879;SDS011;10102;50.828;4.416;2022-07-21T14:32:39;20.02;;;5.43;;
19879;SDS011;10102;50.828;4.416;2022-07-21T14:35:05;17.95;;;5.60;;
19879;SDS011;10102;50.828;4.416;2022-07-21T14:37:31;15.77;;;5.68;;
19879;SDS011;10102;50.828;4.416;2022-07-21T14:39:56;13.20;;;5.28;;
19879;SDS011;10102;50.828;4.416;2022-07-21T14:42:22;22.67;;;6.28;;
19879;SDS011;10102;50.828;4.416;2022-07-21T14:44:49;15.55;;;5.43;;
19879;SDS011;10102;50.828;4.416;2022-07-21T14:47:14;19.63;;;5.13;;
19879;SDS011;10102;50.828;4.416;2022-07-21T14:49:40;15.60;;;4.60;;
19879;SDS011;10102;50.828;4.416;2022-07-21T14:52:06;12.48;;;4.20;;
19879;SDS011;10102;50.828;4.416;2022-07-21T14:54:33;17.05;;;4.70;;
19879;SDS011;10102;50.828;4.416;2022-07-21T14:56:59;14.68;;;4.43;;
19879;SDS011;10102;50.828;4.416;2022-07-21T14:59:24;16.58;;;5.13;;
19879;SDS011;10102;50.828;4.416;2022-07-21T15:01:50;10.90;;;4.10;;
19879;SDS011;10102;50.828;4.416;2022-07-21T15:04:16;9.73;;;4.43;;
19879;SDS011;10102;50.828;4.416;2022-07-21T15:06:42;15.68;;;5.03;;
19879;SDS011;10102;50.828;4.416;2022-07-21T15:09:11;9.98;;;3.67;;
19879;SDS011;10102;50.828;4.416;2022-07-21T15:11:37;11.98;;;4.47;;
19879;SDS011;10102;50.828;4.416;2022-07-21T15:14:03;12.35;;;4.28;;